createdAt,value
2023-02-11T00:00:40.231Z,75.27
2023-02-11T00:01:42.046Z,74.92
2023-02-11T00:02:47.834Z,75.11
2023-02-11T00:03:49.921Z,75.19
2023-02-11T00:04:52.755Z,75.27
2023-02-11T00:05:59.390Z,74.86
2023-02-11T00:07:02.149Z,75.56
2023-02-11T00:08:04.349Z,75.89
2023-02-11T00:09:07.880Z,76.03
2023-02-11T00:10:11.144Z,75.80
2023-02-11T00:11:15.297Z,75.43
2023-02-11T00:12:19.535Z,75.97
2023-02-11T00:13:22.657Z,76.11
2023-02-11T00:14:25.407Z,75.87
2023-02-11T00:15:27.403Z,76.00
2023-02-11T00:16:31.872Z,75.94
2023-02-11T00:17:33.718Z,75.75
2023-02-11T00:18:37.283Z,75.25
2023-02-11T00:19:39.920Z,75.60
2023-02-11T00:20:43.230Z,75.94
2023-02-11T00:21:45.084Z,75.44
2023-02-11T00:22:47.843Z,75.84
2023-02-11T00:23:50.053Z,75.41
2023-02-11T00:24:52.868Z,76.28
2023-02-11T00:26:11.934Z,76.64
2023-02-11T00:27:15.152Z,76.63
2023-02-11T00:28:18.395Z,76.69
2023-02-11T00:29:20.224Z,76.57
2023-02-11T00:30:23.089Z,76.74
2023-02-11T00:31:25.860Z,76.83
2023-02-11T00:32:28.747Z,76.73
2023-02-11T00:33:30.592Z,76.73
2023-02-11T00:34:33.880Z,77.00
2023-02-11T00:35:37.713Z,76.92
2023-02-11T00:36:40.641Z,77.41
2023-02-11T00:37:43.010Z,77.17
2023-02-11T00:38:47.284Z,77.34
2023-02-11T00:39:50.191Z,76.93
2023-02-11T00:40:53.024Z,77.49
2023-02-11T00:41:56.332Z,77.25
2023-02-11T00:42:59.113Z,76.70
2023-02-11T00:44:01.549Z,76.97
2023-02-11T00:45:04.765Z,77.49
2023-02-11T00:46:06.902Z,77.76
2023-02-11T00:47:09.734Z,77.01
2023-02-11T00:48:11.518Z,77.28
2023-02-11T00:49:14.418Z,77.15
2023-02-11T00:50:17.122Z,77.15
2023-02-11T00:51:19.880Z,77.20
2023-02-11T00:52:21.639Z,77.46
2023-02-11T00:53:24.828Z,77.76
2023-02-11T00:54:29.898Z,78.22
2023-02-11T00:55:33.154Z,77.94
2023-02-11T00:56:35.591Z,78.08
2023-02-11T00:57:39.708Z,77.74
2023-02-11T00:58:41.495Z,77.89
2023-02-11T00:59:44.402Z,78.24
2023-02-11T01:00:46.209Z,77.93
2023-02-11T01:01:49.946Z,77.56
2023-02-11T01:02:52.233Z,77.54
2023-02-11T01:03:54.986Z,77.45
2023-02-11T01:04:59.780Z,77.54
2023-02-11T01:06:03.145Z,77.93
2023-02-11T01:07:04.970Z,78.04
2023-02-11T01:08:08.066Z,78.32
2023-02-11T01:09:09.916Z,78.05
2023-02-11T01:10:13.083Z,77.80
2023-02-11T01:11:17.010Z,77.90
2023-02-11T01:12:21.053Z,78.22
2023-02-11T01:13:24.849Z,78.27
2023-02-11T01:14:30.086Z,78.76
2023-02-11T01:15:33.237Z,77.96
2023-02-11T01:16:36.536Z,78.40
2023-02-11T01:17:38.360Z,78.57
2023-02-11T01:18:41.873Z,78.37
2023-02-11T01:19:44.791Z,78.50
2023-02-11T01:20:47.592Z,78.61
2023-02-11T01:21:50.473Z,78.65
2023-02-11T01:22:52.300Z,78.83
2023-02-11T01:23:55.033Z,78.96
2023-02-11T01:24:56.877Z,78.72
2023-02-11T01:25:59.801Z,78.71
2023-02-11T01:27:04.198Z,78.54
2023-02-11T01:28:07.093Z,79.09
2023-02-11T01:29:10.312Z,78.57
2023-02-11T01:30:14.512Z,78.45
2023-02-11T01:31:16.432Z,78.37
2023-02-11T01:32:19.296Z,78.42
2023-02-11T01:33:21.894Z,78.29
2023-02-11T01:34:24.732Z,78.39
2023-02-11T01:35:26.496Z,78.09
2023-02-11T01:36:29.414Z,78.17
2023-02-11T01:37:33.101Z,78.15
2023-02-11T01:38:36.270Z,78.03
2023-02-11T01:39:38.156Z,78.01
2023-02-11T01:40:41.081Z,77.70
2023-02-11T01:41:43.003Z,77.96
2023-02-11T01:42:48.339Z,78.22
2023-02-11T01:43:51.337Z,78.21
2023-02-11T01:44:56.242Z,78.05
2023-02-11T01:46:05.479Z,78.04
2023-02-11T01:47:08.387Z,77.97
2023-02-11T01:48:13.779Z,78.14
2023-02-11T01:49:20.107Z,78.37
2023-02-11T01:50:24.277Z,78.36
2023-02-11T01:51:28.989Z,77.88
2023-02-11T01:52:36.433Z,77.93
2023-02-11T01:53:57.605Z,78.33
2023-02-11T01:55:19.419Z,78.60
2023-02-11T01:56:39.992Z,78.41
2023-02-11T01:57:46.243Z,78.45
2023-02-11T01:58:50.217Z,78.06
2023-02-11T02:00:16.594Z,78.70
2023-02-11T02:01:22.605Z,78.82
2023-02-11T02:02:32.430Z,78.55
2023-02-11T02:03:36.817Z,78.72
2023-02-11T02:04:43.514Z,78.69
2023-02-11T02:05:49.700Z,78.66
2023-02-11T02:06:57.317Z,78.50
2023-02-11T02:08:04.157Z,78.56
2023-02-11T02:09:09.754Z,78.06
2023-02-11T02:10:15.024Z,78.22
2023-02-11T02:11:17.967Z,78.57
2023-02-11T02:12:20.130Z,78.30
2023-02-11T02:13:23.609Z,78.85
2023-02-11T02:14:28.884Z,78.74
2023-02-11T02:15:34.717Z,78.13
2023-02-11T02:16:38.316Z,78.13
2023-02-11T02:17:46.351Z,78.01
2023-02-11T02:18:55.195Z,78.40
2023-02-11T02:20:23.692Z,78.44
2023-02-11T02:22:17.547Z,78.50
2023-02-11T02:23:47.601Z,78.47
2023-02-11T02:25:00.705Z,78.38
2023-02-11T02:26:26.962Z,78.48
2023-02-11T02:27:47.222Z,78.45
2023-02-11T02:29:19.508Z,78.62
2023-02-11T02:30:51.114Z,78.56
2023-02-11T02:32:22.531Z,78.78
2023-02-11T02:33:31.903Z,78.61
2023-02-11T02:34:38.164Z,78.77
2023-02-11T02:35:44.170Z,78.77
2023-02-11T02:36:50.617Z,78.23
2023-02-11T02:37:58.292Z,78.52
2023-02-11T02:39:06.020Z,78.71
2023-02-11T02:40:12.513Z,78.63
2023-02-11T02:41:15.882Z,78.60
2023-02-11T02:42:19.370Z,78.42
2023-02-11T02:43:22.137Z,78.69
2023-02-11T02:44:25.648Z,78.57
2023-02-11T02:45:27.611Z,78.61
2023-02-11T02:46:32.316Z,78.87
2023-02-11T02:47:34.168Z,78.63
2023-02-11T02:48:38.397Z,78.47
2023-02-11T02:49:40.299Z,78.31
2023-02-11T02:50:43.234Z,78.50
2023-02-11T02:52:05.394Z,78.43
2023-02-11T02:53:15.717Z,78.60
2023-02-11T02:54:35.789Z,78.59
2023-02-11T02:55:44.577Z,78.33
2023-02-11T02:56:49.787Z,78.43
2023-02-11T02:58:02.814Z,78.07
2023-02-11T02:59:38.279Z,78.53
2023-02-11T03:00:44.430Z,78.47
2023-02-11T03:01:52.477Z,78.10
2023-02-11T03:03:08.880Z,78.33
2023-02-11T03:04:19.902Z,78.00
2023-02-11T03:05:26.033Z,77.97
2023-02-11T03:06:32.680Z,77.90
2023-02-11T03:07:39.891Z,77.88
2023-02-11T03:08:45.418Z,78.00
2023-02-11T03:09:51.047Z,77.88
2023-02-11T03:10:55.476Z,77.68
2023-02-11T03:11:57.389Z,77.63
2023-02-11T03:13:00.264Z,77.77
2023-02-11T03:14:03.925Z,77.49
2023-02-11T03:15:08.202Z,77.23
2023-02-11T03:16:13.795Z,77.35
2023-02-11T03:17:17.800Z,77.30
2023-02-11T03:18:21.938Z,77.11
2023-02-11T03:19:30.006Z,76.99
2023-02-11T03:20:33.442Z,76.94
2023-02-11T03:21:38.909Z,76.82
2023-02-11T03:22:45.106Z,76.70
2023-02-11T03:23:51.666Z,76.62
2023-02-11T03:24:53.943Z,76.47
2023-02-11T03:25:59.695Z,76.33
2023-02-11T03:27:04.842Z,76.24
2023-02-11T03:28:11.609Z,76.38
2023-02-11T03:29:17.149Z,76.19
2023-02-11T03:30:21.974Z,75.99
2023-02-11T03:31:28.770Z,76.02
2023-02-11T03:32:34.964Z,75.94
2023-02-11T03:33:42.015Z,76.02
2023-02-11T03:34:48.821Z,75.76
2023-02-11T03:35:53.541Z,75.92
2023-02-11T03:36:58.652Z,75.77
2023-02-11T03:38:02.641Z,75.60
2023-02-11T03:39:06.966Z,75.62
2023-02-11T03:40:12.117Z,75.58
2023-02-11T03:41:16.697Z,75.68
2023-02-11T03:42:18.982Z,75.49
2023-02-11T03:43:24.110Z,75.76
2023-02-11T03:44:30.878Z,75.39
2023-02-11T03:45:34.019Z,75.46
2023-02-11T03:46:38.091Z,75.51
2023-02-11T03:47:45.088Z,75.27
2023-02-11T03:48:49.631Z,75.25
2023-02-11T03:49:54.943Z,75.21
2023-02-11T03:50:58.806Z,75.24
2023-02-11T03:52:02.540Z,75.18
2023-02-11T03:53:05.057Z,75.30
2023-02-11T03:54:14.780Z,75.15
2023-02-11T03:55:18.971Z,75.03
2023-02-11T03:56:24.785Z,75.03
2023-02-11T03:57:26.577Z,75.09
2023-02-11T03:58:29.357Z,74.97
2023-02-11T03:59:31.201Z,74.95
2023-02-11T04:00:36.645Z,74.84
2023-02-11T04:01:38.491Z,74.79
2023-02-11T04:02:41.997Z,75.06
2023-02-11T04:03:43.810Z,74.84
2023-02-11T04:04:46.792Z,74.90
2023-02-11T04:05:50.518Z,74.93
2023-02-11T04:06:53.451Z,74.91
2023-02-11T04:07:55.252Z,75.00
2023-02-11T04:08:58.222Z,74.72
2023-02-11T04:10:00.249Z,74.88
2023-02-11T04:11:03.295Z,74.85
2023-02-11T04:12:05.462Z,74.80
2023-02-11T04:13:08.306Z,74.89
2023-02-11T04:14:10.103Z,74.91
2023-02-11T04:15:13.259Z,74.69
2023-02-11T04:16:15.160Z,74.75
2023-02-11T04:17:17.952Z,74.87
2023-02-11T04:18:19.818Z,74.86
2023-02-11T04:19:22.557Z,74.80
2023-02-11T04:20:24.427Z,75.06
2023-02-11T04:21:29.349Z,74.87
2023-02-11T04:22:31.320Z,74.86
2023-02-11T04:23:34.104Z,75.19
2023-02-11T04:24:36.394Z,75.13
2023-02-11T04:25:39.121Z,74.96
2023-02-11T04:26:40.965Z,75.07
2023-02-11T04:27:44.128Z,75.04
2023-02-11T04:28:45.951Z,75.14
2023-02-11T04:29:48.670Z,74.99
2023-02-11T04:30:51.095Z,74.87
2023-02-11T04:31:53.927Z,75.08
2023-02-11T04:32:55.712Z,75.26
2023-02-11T04:33:58.674Z,75.21
2023-02-11T04:35:00.426Z,75.04
2023-02-11T04:36:04.650Z,74.98
2023-02-11T04:37:08.974Z,75.31
2023-02-11T04:38:10.750Z,75.28
2023-02-11T04:39:13.578Z,75.51
2023-02-11T04:40:15.473Z,75.33
2023-02-11T04:41:18.256Z,75.37
2023-02-11T04:42:20.198Z,75.34
2023-02-11T04:43:23.149Z,75.49
2023-02-11T04:44:24.905Z,75.48
2023-02-11T04:45:27.630Z,75.45
2023-02-11T04:46:29.697Z,75.46
2023-02-11T04:47:32.629Z,75.52
2023-02-11T04:48:34.875Z,75.39
2023-02-11T04:49:37.888Z,75.53
2023-02-11T04:50:41.517Z,75.48
2023-02-11T04:51:47.603Z,75.56
2023-02-11T04:52:52.284Z,75.55
2023-02-11T04:53:55.031Z,75.75
2023-02-11T04:54:56.776Z,75.75
2023-02-11T04:55:59.625Z,76.04
2023-02-11T04:57:01.484Z,75.50
2023-02-11T04:58:04.653Z,75.71
2023-02-11T04:59:07.201Z,75.80
2023-02-11T05:00:11.377Z,75.76
2023-02-11T05:01:15.158Z,76.03
2023-02-11T05:02:18.041Z,75.72
2023-02-11T05:03:19.887Z,75.91
2023-02-11T05:04:22.917Z,75.97
2023-02-11T05:05:24.874Z,75.95
2023-02-11T05:06:27.643Z,75.89
2023-02-11T05:07:29.434Z,75.89
2023-02-11T05:08:33.876Z,75.93
2023-02-11T05:09:35.659Z,75.88
2023-02-11T05:10:38.662Z,75.92
2023-02-11T05:11:40.803Z,76.16
2023-02-11T05:12:43.582Z,76.07
2023-02-11T05:13:45.391Z,75.98
2023-02-11T05:14:48.493Z,76.07
2023-02-11T05:15:50.952Z,76.13
2023-02-11T05:16:54.235Z,76.17
2023-02-11T05:17:56.341Z,76.17
2023-02-11T05:18:59.165Z,76.17
2023-02-11T05:20:00.933Z,76.17
2023-02-11T05:21:07.500Z,76.00
2023-02-11T05:22:09.306Z,76.17
2023-02-11T05:23:12.644Z,76.15
2023-02-11T05:24:15.844Z,76.17
2023-02-11T05:25:18.810Z,76.14
2023-02-11T05:26:20.666Z,76.03
2023-02-11T05:27:42.432Z,76.34
2023-02-11T05:28:45.070Z,76.18
2023-02-11T05:29:47.872Z,76.23
2023-02-11T05:30:49.708Z,76.20
2023-02-11T05:31:52.603Z,76.19
2023-02-11T05:32:54.594Z,76.07
2023-02-11T05:33:57.398Z,76.15
2023-02-11T05:34:59.244Z,76.17
2023-02-11T05:36:03.501Z,76.10
2023-02-11T05:37:05.352Z,76.07
2023-02-11T05:38:27.070Z,76.09
2023-02-11T05:39:30.495Z,75.80
2023-02-11T05:40:33.469Z,76.04
2023-02-11T05:41:35.230Z,75.96
2023-02-11T05:42:38.134Z,75.94
2023-02-11T05:43:40.013Z,75.96
2023-02-11T05:44:42.761Z,76.10
2023-02-11T05:45:45.049Z,76.00
2023-02-11T05:46:49.100Z,76.13
2023-02-11T05:47:50.878Z,76.17
2023-02-11T05:48:53.670Z,76.13
2023-02-11T05:49:55.449Z,76.03
2023-02-11T05:50:58.221Z,76.22
2023-02-11T05:52:00.133Z,76.11
2023-02-11T05:53:02.870Z,76.04
2023-02-11T05:54:05.132Z,76.24
2023-02-11T05:55:09.362Z,76.06
2023-02-11T05:56:11.762Z,76.14
2023-02-11T05:57:14.946Z,76.15
2023-02-11T05:58:16.793Z,76.07
2023-02-11T05:59:19.518Z,76.04
2023-02-11T06:00:21.436Z,75.99
2023-02-11T06:01:24.325Z,76.02
2023-02-11T06:02:26.135Z,76.05
2023-02-11T06:03:28.886Z,76.11
2023-02-11T06:04:31.139Z,75.93
2023-02-11T06:05:34.158Z,76.14
2023-02-11T06:06:36.365Z,76.28
2023-02-11T06:07:39.192Z,76.18
2023-02-11T06:08:41.130Z,76.28
2023-02-11T06:09:43.981Z,76.42
2023-02-11T06:10:47.191Z,76.22
2023-02-11T06:11:50.327Z,76.39
2023-02-11T06:12:52.129Z,76.72
2023-02-11T06:13:54.934Z,76.75
2023-02-11T06:14:56.770Z,76.63
2023-02-11T06:16:00.445Z,76.63
2023-02-11T06:17:02.720Z,76.50
2023-02-11T06:18:05.965Z,76.73
2023-02-11T06:19:07.732Z,76.85
2023-02-11T06:20:11.726Z,76.73
2023-02-11T06:21:13.691Z,76.62
2023-02-11T06:22:16.454Z,76.79
2023-02-11T06:23:18.491Z,76.77
2023-02-11T06:24:45.191Z,76.82
2023-02-11T06:25:43.961Z,76.88
2023-02-11T06:26:47.174Z,76.82
2023-02-11T06:27:49.927Z,77.00
2023-02-11T06:28:51.890Z,76.75
2023-02-11T06:29:54.690Z,76.87
2023-02-11T06:30:56.519Z,76.91
2023-02-11T06:31:59.489Z,76.95
2023-02-11T06:33:01.556Z,76.73
2023-02-11T06:34:04.980Z,76.84
2023-02-11T06:35:10.737Z,76.69
2023-02-11T06:36:17.066Z,76.71
2023-02-11T06:37:18.829Z,76.79
2023-02-11T06:38:21.614Z,76.69
2023-02-11T06:39:23.463Z,76.65
2023-02-11T06:40:26.194Z,76.78
2023-02-11T06:41:28.106Z,76.43
2023-02-11T06:42:32.363Z,76.65
2023-02-11T06:43:34.161Z,76.62
2023-02-11T06:44:37.094Z,76.62
2023-02-11T06:45:39.327Z,76.74
2023-02-11T06:46:42.159Z,76.54
2023-02-11T06:47:43.994Z,76.54
2023-02-11T06:48:47.478Z,76.71
2023-02-11T06:49:49.262Z,76.56
2023-02-11T06:50:51.983Z,76.31
2023-02-11T06:51:53.826Z,76.38
2023-02-11T06:52:56.550Z,76.24
2023-02-11T06:53:58.350Z,76.19
2023-02-11T06:55:01.231Z,75.99
2023-02-11T06:56:03.987Z,76.04
2023-02-11T06:57:06.705Z,76.27
2023-02-11T06:58:10.892Z,76.29
2023-02-11T06:59:15.465Z,76.15
2023-02-11T07:00:18.990Z,76.19
2023-02-11T07:01:21.658Z,76.13
2023-02-11T07:02:24.476Z,76.24
2023-02-11T07:03:26.552Z,76.18
2023-02-11T07:04:29.510Z,76.24
2023-02-11T07:05:31.429Z,75.85
2023-02-11T07:06:34.185Z,76.07
2023-02-11T07:07:37.092Z,75.93
2023-02-11T07:08:40.489Z,75.71
2023-02-11T07:09:42.752Z,75.97
2023-02-11T07:10:45.620Z,75.72
2023-02-11T07:11:47.404Z,75.90
2023-02-11T07:12:50.149Z,75.77
2023-02-11T07:14:13.332Z,75.58
2023-02-11T07:15:16.351Z,75.82
2023-02-11T07:16:19.118Z,75.82
2023-02-11T07:17:21.940Z,75.88
2023-02-11T07:18:23.704Z,75.61
2023-02-11T07:19:26.450Z,75.81
2023-02-11T07:20:28.718Z,75.86
2023-02-11T07:21:31.561Z,75.90
2023-02-11T07:22:34.296Z,75.76
2023-02-11T07:23:37.831Z,75.77
2023-02-11T07:24:39.606Z,75.70
2023-02-11T07:25:42.746Z,75.92
2023-02-11T07:26:45.002Z,75.76
2023-02-11T07:27:47.800Z,75.69
2023-02-11T07:28:50.168Z,75.81
2023-02-11T07:29:54.354Z,75.81
2023-02-11T07:30:56.321Z,75.75
2023-02-11T07:31:59.092Z,75.83
2023-02-11T07:33:01.024Z,76.01
2023-02-11T07:34:03.795Z,75.87
2023-02-11T07:35:06.146Z,76.19
2023-02-11T07:36:10.566Z,75.59
2023-02-11T07:37:12.349Z,75.50
2023-02-11T07:38:15.145Z,75.82
2023-02-11T07:39:17.952Z,75.84
2023-02-11T07:40:19.927Z,75.48
2023-02-11T07:41:23.925Z,75.65
2023-02-11T07:42:26.124Z,75.74
2023-02-11T07:43:28.870Z,76.02
2023-02-11T07:44:30.906Z,75.50
2023-02-11T07:45:35.101Z,75.98
2023-02-11T07:46:36.998Z,75.48
2023-02-11T07:47:39.757Z,75.74
2023-02-11T07:48:41.871Z,75.22
2023-02-11T07:49:44.605Z,75.05
2023-02-11T07:50:46.374Z,75.34
2023-02-11T07:52:07.947Z,75.21
2023-02-11T07:53:09.787Z,74.61
2023-02-11T07:54:12.889Z,74.92
2023-02-11T07:55:14.940Z,74.83
2023-02-11T07:56:19.255Z,74.70
2023-02-11T07:57:21.038Z,74.99
2023-02-11T07:58:23.805Z,75.03
2023-02-11T07:59:25.591Z,74.61
2023-02-11T08:00:28.392Z,74.76
2023-02-11T08:01:32.825Z,74.49
2023-02-11T08:02:36.001Z,74.46
2023-02-11T08:03:38.483Z,74.41
2023-02-11T08:04:41.377Z,74.17
2023-02-11T08:05:43.838Z,74.29
2023-02-11T08:06:46.692Z,74.30
2023-02-11T08:07:51.317Z,74.29
2023-02-11T08:08:54.190Z,74.25
2023-02-11T08:09:55.961Z,74.47
2023-02-11T08:10:59.021Z,74.36
2023-02-11T08:12:01.780Z,74.17
2023-02-11T08:13:03.832Z,73.33
2023-02-11T08:14:06.940Z,73.11
2023-02-11T08:15:09.470Z,73.27
2023-02-11T08:16:19.363Z,73.42
2023-02-11T08:17:42.390Z,72.79
2023-02-11T08:18:45.188Z,73.02
2023-02-11T08:19:47.941Z,73.28
2023-02-11T08:20:50.009Z,73.13
2023-02-11T08:21:56.279Z,73.57
2023-02-11T08:22:58.053Z,73.60
2023-02-11T08:24:02.371Z,73.05
2023-02-11T08:25:04.715Z,73.02
2023-02-11T08:26:09.410Z,72.07
2023-02-11T08:27:12.134Z,72.21
2023-02-11T08:28:14.073Z,72.59
2023-02-11T08:29:18.322Z,72.72
2023-02-11T08:30:20.124Z,72.97
2023-02-11T08:31:24.810Z,72.73
2023-02-11T08:32:27.639Z,73.03
2023-02-11T08:33:31.707Z,72.81
2023-02-11T08:34:34.621Z,72.18
2023-02-11T08:35:39.825Z,72.56
2023-02-11T08:36:42.976Z,71.78
2023-02-11T08:37:46.110Z,71.95
2023-02-11T08:38:47.900Z,72.23
2023-02-11T08:39:50.975Z,72.29
2023-02-11T08:40:52.943Z,71.61
2023-02-11T08:41:56.666Z,72.48
2023-02-11T08:42:59.460Z,71.51
2023-02-11T08:44:01.867Z,71.81
2023-02-11T08:45:05.060Z,72.22
2023-02-11T08:46:06.897Z,72.59
2023-02-11T08:47:09.812Z,72.13
2023-02-11T08:48:11.642Z,71.98
2023-02-11T08:49:15.960Z,71.99
2023-02-11T08:50:18.339Z,72.56
2023-02-11T08:51:23.873Z,71.55
2023-02-11T08:52:26.580Z,71.41
2023-02-11T08:53:28.397Z,71.75
2023-02-11T08:54:31.306Z,71.86
2023-02-11T08:55:33.128Z,71.86
2023-02-11T08:56:36.320Z,71.98
2023-02-11T08:57:38.175Z,71.65
2023-02-11T08:58:41.198Z,71.47
2023-02-11T08:59:44.031Z,70.84
2023-02-11T09:00:46.349Z,71.00
2023-02-11T09:01:49.212Z,71.31
2023-02-11T09:02:51.339Z,70.37
2023-02-11T09:03:54.770Z,71.11
2023-02-11T09:04:58.836Z,71.52
2023-02-11T09:06:00.807Z,70.92
2023-02-11T09:07:03.549Z,70.83
2023-02-11T09:08:05.711Z,71.33
2023-02-11T09:09:11.977Z,71.07
2023-02-11T09:10:13.736Z,71.31
2023-02-11T09:11:17.194Z,70.66
2023-02-11T09:12:20.436Z,70.36
2023-02-11T09:13:22.242Z,70.61
2023-02-11T09:14:25.725Z,69.76
2023-02-11T09:15:28.590Z,70.24
2023-02-11T09:16:32.621Z,69.44
2023-02-11T09:17:35.464Z,70.55
2023-02-11T09:18:37.301Z,69.48
2023-02-11T09:19:40.084Z,70.24
2023-02-11T09:20:44.182Z,70.88
2023-02-11T09:21:47.563Z,70.70
2023-02-11T09:22:50.715Z,70.69
2023-02-11T09:23:53.572Z,70.25
2023-02-11T09:24:56.621Z,69.70
2023-02-11T09:25:58.369Z,69.70
2023-02-11T09:27:01.130Z,70.45
2023-02-11T09:28:03.111Z,69.45
2023-02-11T09:29:06.949Z,70.28
2023-02-11T09:30:10.778Z,70.16
2023-02-11T09:31:15.526Z,69.89
2023-02-11T09:32:18.469Z,70.55
2023-02-11T09:33:20.310Z,70.05
2023-02-11T09:34:23.147Z,70.18
2023-02-11T09:35:24.932Z,70.06
2023-02-11T09:36:30.697Z,70.20
2023-02-11T09:37:32.572Z,70.08
2023-02-11T09:38:35.448Z,69.49
2023-02-11T09:39:38.209Z,69.87
2023-02-11T09:40:42.751Z,70.10
2023-02-11T09:42:11.560Z,69.45
2023-02-11T09:43:17.442Z,69.90
2023-02-11T09:44:21.678Z,69.56
2023-02-11T09:45:26.497Z,69.80
2023-02-11T09:46:31.769Z,69.83
2023-02-11T09:47:36.358Z,68.98
2023-02-11T09:48:40.667Z,69.27
2023-02-11T09:49:46.628Z,69.42
2023-02-11T09:50:52.882Z,69.33
2023-02-11T09:51:59.157Z,69.42
2023-02-11T09:53:04.462Z,69.59
2023-02-11T09:54:12.178Z,69.57
2023-02-11T09:55:20.205Z,69.42
2023-02-11T09:56:22.881Z,69.13
2023-02-11T09:57:29.349Z,69.78
2023-02-11T09:58:33.665Z,69.95
2023-02-11T09:59:36.983Z,69.69
2023-02-11T10:00:44.590Z,69.71
2023-02-11T10:01:49.552Z,69.59
2023-02-11T10:03:22.666Z,69.27
2023-02-11T10:04:38.575Z,69.37
2023-02-11T10:05:52.469Z,68.51
2023-02-11T10:06:57.879Z,68.61
2023-02-11T10:08:09.677Z,68.46
2023-02-11T10:09:30.131Z,69.50
2023-02-11T10:10:43.343Z,68.87
2023-02-11T10:11:53.700Z,68.25
2023-02-11T10:13:18.170Z,68.87
2023-02-11T10:14:32.592Z,68.35
2023-02-11T10:15:44.803Z,68.85
2023-02-11T10:16:58.450Z,68.61
2023-02-11T10:18:14.468Z,68.48
2023-02-11T10:19:41.707Z,68.43
2023-02-11T10:20:50.161Z,68.48
2023-02-11T10:22:01.082Z,68.69
2023-02-11T10:23:11.196Z,69.06
2023-02-11T10:24:14.779Z,68.60
2023-02-11T10:25:23.981Z,68.22
2023-02-11T10:26:37.084Z,68.52
2023-02-11T10:27:40.130Z,68.20
2023-02-11T10:28:45.868Z,68.37
2023-02-11T10:29:51.140Z,68.01
2023-02-11T10:30:58.291Z,68.47
2023-02-11T10:32:02.360Z,68.03
2023-02-11T10:33:11.907Z,68.11
2023-02-11T10:34:15.743Z,68.05
2023-02-11T10:35:22.305Z,68.37
2023-02-11T10:36:28.048Z,68.34
2023-02-11T10:37:32.535Z,67.98
2023-02-11T10:38:36.384Z,67.64
2023-02-11T10:39:39.886Z,67.69
2023-02-11T10:40:42.742Z,67.00
2023-02-11T10:41:46.394Z,67.40
2023-02-11T10:42:53.581Z,67.38
2023-02-11T10:43:57.165Z,67.68
2023-02-11T10:45:02.110Z,67.73
2023-02-11T10:46:06.035Z,67.43
2023-02-11T10:47:13.036Z,66.68
2023-02-11T10:48:38.411Z,67.32
2023-02-11T10:49:41.489Z,67.02
2023-02-11T10:50:44.210Z,66.55
2023-02-11T10:51:46.934Z,66.23
2023-02-11T10:52:50.531Z,66.60
2023-02-11T10:54:14.326Z,66.04
2023-02-11T10:55:20.755Z,66.53
2023-02-11T10:56:26.647Z,66.65
2023-02-11T10:57:31.553Z,66.86
2023-02-11T10:58:41.660Z,67.14
2023-02-11T10:59:43.598Z,67.01
2023-02-11T11:00:53.781Z,67.08
2023-02-11T11:01:59.028Z,66.79
2023-02-11T11:03:02.937Z,65.99
2023-02-11T11:04:05.892Z,66.24
2023-02-11T11:05:16.589Z,65.91
2023-02-11T11:06:30.692Z,65.96
2023-02-11T11:07:33.717Z,65.13
2023-02-11T11:08:43.917Z,66.12
2023-02-11T11:09:50.065Z,66.09
2023-02-11T11:11:05.167Z,64.70
2023-02-11T11:12:10.407Z,65.43
2023-02-11T11:13:32.144Z,65.73
2023-02-11T11:14:33.970Z,66.17
2023-02-11T11:15:36.738Z,65.84
2023-02-11T11:16:39.094Z,65.95
2023-02-11T11:17:41.876Z,66.03
2023-02-11T11:18:45.115Z,66.71
2023-02-11T11:19:47.954Z,66.68
2023-02-11T11:20:56.807Z,66.95
2023-02-11T11:22:00.343Z,66.60
2023-02-11T11:23:12.347Z,66.90
2023-02-11T11:24:19.841Z,66.99
2023-02-11T11:25:26.221Z,66.94
2023-02-11T11:26:31.156Z,67.27
2023-02-11T11:27:33.282Z,67.07
2023-02-11T11:28:38.825Z,67.30
2023-02-11T11:29:46.018Z,67.42
2023-02-11T11:30:47.954Z,67.29
2023-02-11T11:31:52.910Z,67.10
2023-02-11T11:32:55.068Z,67.37
2023-02-11T11:33:59.601Z,68.00
2023-02-11T11:35:03.875Z,67.75
2023-02-11T11:36:09.781Z,67.67
2023-02-11T11:37:14.348Z,67.54
2023-02-11T11:38:16.313Z,67.63
2023-02-11T11:39:23.941Z,67.76
2023-02-11T11:40:27.208Z,67.90
2023-02-11T11:41:31.635Z,67.72
2023-02-11T11:42:36.615Z,67.77
2023-02-11T11:43:38.537Z,67.93
2023-02-11T11:44:41.402Z,67.87
2023-02-11T11:45:54.364Z,67.84
2023-02-11T11:47:13.168Z,67.69
2023-02-11T11:48:21.912Z,67.93
2023-02-11T11:49:29.849Z,68.08
2023-02-11T11:50:34.532Z,68.30
2023-02-11T11:51:39.168Z,68.32
2023-02-11T11:52:47.069Z,68.53
2023-02-11T11:53:54.641Z,68.38
2023-02-11T11:55:03.244Z,68.60
2023-02-11T11:56:07.952Z,68.67
2023-02-11T11:57:13.609Z,68.75
2023-02-11T11:58:17.583Z,68.89
2023-02-11T11:59:19.443Z,68.89
2023-02-11T12:00:28.072Z,68.65
2023-02-11T12:01:38.423Z,68.83
2023-02-11T12:03:10.637Z,69.28
2023-02-11T12:05:01.462Z,69.04
2023-02-11T12:06:12.926Z,69.19
2023-02-11T12:07:25.960Z,69.72
2023-02-11T12:08:34.629Z,69.49
2023-02-11T12:09:44.201Z,69.76
2023-02-11T12:11:09.147Z,69.46
2023-02-11T12:12:26.954Z,69.58
2023-02-11T12:13:40.115Z,69.79
2023-02-11T12:14:49.655Z,70.10
2023-02-11T12:15:58.639Z,70.42
2023-02-11T12:17:04.490Z,70.23
2023-02-11T12:18:17.879Z,70.40
2023-02-11T12:19:56.542Z,70.19
2023-02-11T12:21:23.670Z,70.52
2023-02-11T12:22:35.917Z,70.75
2023-02-11T12:23:47.257Z,71.16
2023-02-11T12:25:09.609Z,72.30
2023-02-11T12:26:17.644Z,71.81
2023-02-11T12:27:27.380Z,71.85
2023-02-11T12:28:38.383Z,71.94
2023-02-11T12:29:49.919Z,72.04
2023-02-11T12:31:03.938Z,72.08
2023-02-11T12:32:19.010Z,71.84
2023-02-11T12:33:30.433Z,72.00
2023-02-11T12:34:57.776Z,72.53
2023-02-11T12:36:03.469Z,72.72
2023-02-11T12:37:15.520Z,73.15
2023-02-11T12:38:33.810Z,73.37
2023-02-11T12:39:45.325Z,73.99
2023-02-11T12:40:55.555Z,74.58
2023-02-11T12:42:30.056Z,74.84
2023-02-11T12:43:36.711Z,74.70
2023-02-11T12:44:48.681Z,75.06
2023-02-11T12:46:03.818Z,74.60
2023-02-11T12:47:14.357Z,74.71
2023-02-11T12:48:28.724Z,74.72
2023-02-11T12:49:56.110Z,75.67
2023-02-11T12:51:04.761Z,74.91
2023-02-11T12:52:16.140Z,75.01
2023-02-11T12:53:32.035Z,75.84
2023-02-11T12:54:39.964Z,75.61
2023-02-11T12:55:45.325Z,76.33
2023-02-11T12:56:53.379Z,76.12
2023-02-11T12:57:59.510Z,76.42
2023-02-11T12:59:02.181Z,75.91
2023-02-11T13:00:08.991Z,76.52
2023-02-11T13:01:18.457Z,76.39
2023-02-11T13:02:29.322Z,76.74
2023-02-11T13:03:36.897Z,76.73
2023-02-11T13:04:41.595Z,76.54
2023-02-11T13:05:47.321Z,76.90
2023-02-11T13:06:53.480Z,76.93
2023-02-11T13:08:00.880Z,76.87
2023-02-11T13:09:06.209Z,76.97
2023-02-11T13:10:21.345Z,76.82
2023-02-11T13:11:27.243Z,76.65
2023-02-11T13:12:49.145Z,77.00
2023-02-11T13:13:56.725Z,76.50
2023-02-11T13:15:03.783Z,76.34
2023-02-11T13:16:09.406Z,76.70
2023-02-11T13:17:17.257Z,76.52
2023-02-11T13:18:48.366Z,76.64
2023-02-11T13:19:53.851Z,76.50
2023-02-11T13:21:00.870Z,76.54
2023-02-11T13:22:06.315Z,76.60
2023-02-11T13:23:14.985Z,76.77
2023-02-11T13:24:24.262Z,76.66
2023-02-11T13:25:31.797Z,77.29
2023-02-11T13:26:40.544Z,77.06
2023-02-11T13:27:50.460Z,77.21
2023-02-11T13:28:57.076Z,77.27
2023-02-11T13:30:14.748Z,77.36
2023-02-11T13:31:20.685Z,77.71
2023-02-11T13:32:22.590Z,77.68
2023-02-11T13:33:33.700Z,77.81
2023-02-11T13:34:57.578Z,78.27
2023-02-11T13:36:20.925Z,78.74
2023-02-11T13:37:26.370Z,79.22
2023-02-11T13:38:30.688Z,79.04
2023-02-11T13:39:33.886Z,79.89
2023-02-11T13:40:37.234Z,80.02
2023-02-11T13:41:42.132Z,79.87
2023-02-11T13:42:50.648Z,79.23
2023-02-11T13:44:03.413Z,79.69
2023-02-11T13:45:18.810Z,79.40
2023-02-11T13:46:21.031Z,80.39
2023-02-11T13:47:28.404Z,79.82
2023-02-11T13:48:32.216Z,80.16
2023-02-11T13:49:41.193Z,79.89
2023-02-11T13:50:48.001Z,79.91
2023-02-11T13:51:51.422Z,80.11
2023-02-11T13:52:58.895Z,80.17
2023-02-11T13:54:01.006Z,80.53
2023-02-11T13:55:09.268Z,80.53
2023-02-11T13:56:13.146Z,80.25
2023-02-11T13:57:38.634Z,80.58
2023-02-11T13:58:48.957Z,80.06
2023-02-11T13:59:54.195Z,80.57
2023-02-11T14:00:58.590Z,80.77
2023-02-11T14:02:38.050Z,80.30
2023-02-11T14:03:58.426Z,79.99
2023-02-11T14:05:35.505Z,80.68
2023-02-11T14:06:55.980Z,79.98
2023-02-11T14:08:32.819Z,79.50
2023-02-11T14:09:39.536Z,79.68